createdAt,value
2018-12-29T00:00:43.386Z,102256.27
2018-12-29T00:03:15.071Z,102260.16
2018-12-29T00:05:43.665Z,102260.16
2018-12-29T00:08:15.255Z,102261.89
2018-12-29T00:10:43.849Z,102270.09
2018-12-29T00:13:15.117Z,102267.48
2018-12-29T00:15:43.676Z,102262.33
2018-12-29T00:18:12.238Z,102268.78
2018-12-29T00:20:40.795Z,102270.94
2018-12-29T00:23:09.366Z,102271.81
2018-12-29T00:25:40.969Z,102273.95
2018-12-29T00:28:12.477Z,102276.12
2018-12-29T00:30:41.025Z,102268.78
2018-12-29T00:33:10.042Z,102270.52
2018-12-29T00:35:41.516Z,102264.03
2018-12-29T00:38:10.117Z,102259.29
2018-12-29T00:40:38.671Z,102264.91
2018-12-29T00:43:10.189Z,102261.47
2018-12-29T00:45:41.984Z,102265.77
2018-12-29T00:48:13.321Z,102262.33
2018-12-29T00:50:44.894Z,102266.19
2018-12-29T00:53:13.456Z,102267.50
2018-12-29T00:55:42.015Z,102266.63
2018-12-29T00:58:13.348Z,102263.59
2018-12-29T01:00:41.945Z,102268.35
2018-12-29T01:03:13.536Z,102266.63
2018-12-29T01:05:45.084Z,102265.75
2018-12-29T01:08:16.654Z,102271.78
2018-12-29T01:10:45.239Z,102275.24
2018-12-29T01:13:17.136Z,102273.52
2018-12-29T01:15:48.127Z,102276.56
2018-12-29T01:18:16.682Z,102268.34
2018-12-29T01:20:47.960Z,102275.70
2018-12-29T01:23:19.209Z,102272.22
2018-12-29T01:25:50.464Z,102280.86
2018-12-29T01:28:20.574Z,102273.95
2018-12-29T01:30:51.971Z,102280.41
2018-12-29T01:33:23.566Z,102283.45
2018-12-29T01:35:55.149Z,102283.46
2018-12-29T01:38:23.740Z,102283.00
2018-12-29T01:40:55.374Z,102284.32
2018-12-29T01:43:23.934Z,102289.91
2018-12-29T01:45:55.214Z,102285.61
2018-12-29T01:48:27.894Z,102273.53
2018-12-29T01:50:56.453Z,102276.53
2018-12-29T01:53:25.003Z,102279.14
2018-12-29T01:55:53.564Z,102284.75
2018-12-29T01:58:22.119Z,102281.72
2018-12-29T02:00:53.643Z,102281.28
2018-12-29T02:03:24.958Z,102279.09
2018-12-29T02:05:56.248Z,102269.59
2018-12-29T02:08:24.807Z,102270.50
2018-12-29T02:10:53.373Z,102270.08
2018-12-29T02:13:21.924Z,102269.63
2018-12-29T02:15:53.178Z,102266.62
2018-12-29T02:18:24.666Z,102264.46
2018-12-29T02:20:56.612Z,102255.41
2018-12-29T02:23:25.218Z,102250.66
2018-12-29T02:25:56.810Z,102250.23
2018-12-29T02:28:28.236Z,102248.08
2018-12-29T02:30:56.791Z,102246.34
2018-12-29T02:33:25.354Z,102249.80
2018-12-29T02:35:53.916Z,102245.92
2018-12-29T02:38:22.475Z,102246.78
2018-12-29T02:40:54.146Z,102242.05
2018-12-29T02:43:25.783Z,102245.92
2018-12-29T02:45:54.378Z,102241.19
2018-12-29T02:48:25.916Z,102235.16
2018-12-29T02:50:54.483Z,102228.69
2018-12-29T02:53:23.050Z,102236.87
2018-12-29T02:55:54.532Z,102234.30
2018-12-29T02:58:25.840Z,102234.30
2018-12-29T03:00:57.348Z,102230.83
2018-12-29T03:03:28.747Z,102227.80
2018-12-29T03:05:57.338Z,102225.64
2018-12-29T03:08:28.612Z,102229.98
2018-12-29T03:11:00.341Z,102226.53
2018-12-29T03:13:28.901Z,102229.12
2018-12-29T03:15:57.576Z,102229.13
2018-12-29T03:18:26.137Z,102233.42
2018-12-29T03:20:54.688Z,102219.63
2018-12-29T03:23:23.242Z,102218.31
2018-12-29T03:25:51.808Z,102215.74
2018-12-29T03:28:20.368Z,102220.91
2018-12-29T03:30:51.683Z,102226.11
2018-12-29T03:33:20.233Z,102225.23
2018-12-29T03:35:48.782Z,102221.32
2018-12-29T03:38:17.353Z,102219.16
2018-12-29T03:40:45.904Z,102220.03
2018-12-29T03:43:17.661Z,102221.33
2018-12-29T03:45:49.303Z,102218.30
2018-12-29T03:48:16.498Z,102213.14
2018-12-29T03:50:45.098Z,102201.48
2018-12-29T03:53:13.731Z,102201.48
2018-12-29T03:55:42.273Z,102214.44
2018-12-29T03:58:10.907Z,102210.99
2018-12-29T04:00:42.247Z,102214.41
2018-12-29T04:03:10.808Z,102211.38
2018-12-29T04:05:39.358Z,102199.75
2018-12-29T04:08:09.456Z,102208.83
2018-12-29T04:10:39.559Z,102212.74
2018-12-29T04:13:09.162Z,102206.22
2018-12-29T04:15:38.091Z,102208.86
2018-12-29T04:18:08.401Z,102211.41
2018-12-29T04:20:36.963Z,102208.81
2018-12-29T04:23:06.078Z,102204.08
2018-12-29T04:25:34.659Z,102209.24
2018-12-29T04:28:06.190Z,102209.25
2018-12-29T04:30:34.744Z,102207.95
2018-12-29T04:33:03.706Z,102210.58
2018-12-29T04:35:32.629Z,102207.99
2018-12-29T04:38:01.561Z,102207.13
2018-12-29T04:40:30.120Z,102208.38
2018-12-29T04:42:58.677Z,102198.94
2018-12-29T04:45:30.185Z,102208.83
2018-12-29T04:47:58.736Z,102203.68
2018-12-29T04:50:27.286Z,102208.38
2018-12-29T04:52:55.855Z,102202.39
2018-12-29T04:55:27.442Z,102207.13
2018-12-29T04:57:55.991Z,102212.72
2018-12-29T05:00:24.984Z,102208.43
2018-12-29T05:02:56.318Z,102210.97
2018-12-29T05:05:24.879Z,102202.39
2018-12-29T05:07:53.442Z,102209.27
2018-12-29T05:10:22.020Z,102221.36
2018-12-29T05:12:50.588Z,102220.06
2018-12-29T05:15:19.176Z,102220.06
2018-12-29T05:17:50.820Z,102224.38
2018-12-29T05:20:19.448Z,102223.08
2018-12-29T05:22:48.000Z,102223.05
2018-12-29T05:25:16.564Z,102221.33
2018-12-29T05:27:45.112Z,102222.61
2018-12-29T05:30:13.663Z,102224.38
2018-12-29T05:32:42.590Z,102231.70
2018-12-29T05:35:11.176Z,102229.13
2018-12-29T05:37:39.736Z,102222.64
2018-12-29T05:40:11.144Z,102228.64
2018-12-29T05:42:39.726Z,102221.34
2018-12-29T05:45:11.096Z,102218.73
2018-12-29T05:47:39.656Z,102224.34
2018-12-29T05:50:10.972Z,102229.93
2018-12-29T05:52:39.536Z,102229.08
2018-12-29T05:55:09.637Z,102229.09
2018-12-29T05:57:41.062Z,102232.58
2018-12-29T06:00:09.619Z,102229.09
2018-12-29T06:02:41.105Z,102232.10
2018-12-29T06:05:12.571Z,102237.27
2018-12-29T06:07:44.161Z,102244.16
2018-12-29T06:10:12.722Z,102238.53
2018-12-29T06:12:41.314Z,102239.84
2018-12-29T06:15:12.647Z,102242.44
2018-12-29T06:17:44.283Z,102246.74
2018-12-29T06:20:16.238Z,102250.63
2018-12-29T06:22:44.801Z,102249.75
2018-12-29T06:25:16.287Z,102260.95
2018-12-29T06:27:47.798Z,102259.25
2018-12-29T06:30:19.024Z,102265.24
2018-12-29T06:32:47.584Z,102266.13
2018-12-29T06:35:17.801Z,102258.81
2018-12-29T06:37:46.475Z,102251.89
2018-12-29T06:40:15.038Z,102250.61
2018-12-29T06:42:46.289Z,102245.89
2018-12-29T06:45:17.730Z,102249.77
2018-12-29T06:47:49.272Z,102260.06
2018-12-29T06:50:17.834Z,102257.92
2018-12-29T06:52:48.495Z,102255.35
2018-12-29T06:55:19.772Z,102258.81
2018-12-29T06:57:51.311Z,102263.13
2018-12-29T07:00:20.695Z,102264.83
2018-12-29T07:02:52.225Z,102270.45
2018-12-29T07:05:23.770Z,102273.44
2018-12-29T07:07:52.323Z,102267.41
2018-12-29T07:10:23.546Z,102271.72
2018-12-29T07:12:52.152Z,102281.18
2018-12-29T07:15:20.717Z,102280.32
2018-12-29T07:17:52.533Z,102278.16
2018-12-29T07:20:24.086Z,102273.86
2018-12-29T07:22:55.555Z,102270.43
2018-12-29T07:25:27.130Z,102260.11
2018-12-29T07:27:55.681Z,102258.36
2018-12-29T07:30:27.022Z,102273.44
2018-12-29T07:32:55.577Z,102270.44
2018-12-29T07:35:24.304Z,102278.62
2018-12-29T07:37:53.230Z,102270.44
2018-12-29T07:40:21.831Z,102268.28
2018-12-29T07:42:50.391Z,102269.16
2018-12-29T07:45:21.707Z,102266.12
2018-12-29T07:47:50.259Z,102268.28
2018-12-29T07:50:21.571Z,102260.09
2018-12-29T07:52:50.177Z,102263.11
2018-12-29T07:55:18.738Z,102268.26
2018-12-29T07:57:50.423Z,102257.92
2018-12-29T08:00:21.663Z,102260.52
2018-12-29T08:02:50.498Z,102261.81
2018-12-29T08:05:21.729Z,102267.42
2018-12-29T08:07:53.636Z,102260.52
2018-12-29T08:10:25.236Z,102267.41
2018-12-29T08:12:53.851Z,102262.23
2018-12-29T08:15:22.481Z,102262.66
2018-12-29T08:17:51.101Z,102260.52
2018-12-29T08:20:19.710Z,102271.73
2018-12-29T08:22:50.780Z,102266.98
2018-12-29T08:25:19.403Z,102265.28
2018-12-29T08:27:48.014Z,102260.53
2018-12-29T08:30:16.636Z,102264.86
2018-12-29T08:32:45.248Z,102256.28
2018-12-29T08:35:13.877Z,102257.98
2018-12-29T08:37:42.591Z,102258.00
2018-12-29T08:40:11.268Z,102252.34
2018-12-29T08:42:44.868Z,102254.52
2018-12-29T08:45:13.490Z,102254.95
2018-12-29T08:47:49.886Z,102264.45
2018-12-29T08:50:18.453Z,102269.23
2018-12-29T08:52:47.007Z,102262.74
2018-12-29T08:55:15.602Z,102260.13
2018-12-29T08:57:47.092Z,102261.02
2018-12-29T09:00:15.661Z,102262.33
2018-12-29T09:02:47.340Z,102259.30
2018-12-29T09:05:15.892Z,102263.17
2018-12-29T09:07:47.422Z,102263.16
2018-12-29T09:10:16.095Z,102264.45
2018-12-29T09:12:47.581Z,102276.09
2018-12-29T09:15:16.649Z,102269.64
2018-12-29T09:17:47.862Z,102267.50
2018-12-29T09:20:16.462Z,102269.22
2018-12-29T09:22:47.731Z,102269.22
2018-12-29T09:25:16.298Z,102270.52
2018-12-29T09:27:47.758Z,102272.66
2018-12-29T09:30:16.311Z,102261.02
2018-12-29T09:32:47.905Z,102264.89
2018-12-29T09:35:17.696Z,102270.09
2018-12-29T09:37:48.932Z,102261.02
2018-12-29T09:40:17.485Z,102269.22
2018-12-29T09:42:46.044Z,102268.78
2018-12-29T09:45:14.605Z,102265.34
2018-12-29T09:47:46.097Z,102265.35
2018-12-29T09:50:18.048Z,102258.02
2018-12-29T09:52:47.368Z,102259.30
2018-12-29T09:55:15.975Z,102258.44
2018-12-29T09:57:47.405Z,102253.27
2018-12-29T10:00:15.961Z,102252.83
2018-12-29T10:02:44.554Z,102246.80
2018-12-29T10:05:13.117Z,102253.27
2018-12-29T10:07:41.669Z,102247.66
2018-12-29T10:10:10.317Z,102241.19
2018-12-29T10:12:39.285Z,102242.91
2018-12-29T10:15:11.033Z,102242.06
2018-12-29T10:17:39.588Z,102240.33
2018-12-29T10:20:09.716Z,102236.88
2018-12-29T10:22:40.986Z,102230.83
2018-12-29T10:25:09.589Z,102232.56
2018-12-29T10:27:44.038Z,102231.69
2018-12-29T10:30:15.357Z,102220.06
2018-12-29T10:32:46.978Z,102213.60
2018-12-29T10:35:15.583Z,102221.78
2018-12-29T10:37:44.149Z,102212.73
2018-12-29T10:40:12.746Z,102201.95
2018-12-29T10:42:44.308Z,102204.11
2018-12-29T10:45:14.456Z,102185.13
2018-12-29T10:47:46.242Z,102182.94
2018-12-29T10:50:14.795Z,102188.08
2018-12-29T10:52:46.320Z,102182.48
2018-12-29T10:55:15.128Z,102178.61
2018-12-29T10:57:46.760Z,102177.75
2018-12-29T11:00:15.454Z,102169.58
2018-12-29T11:02:47.358Z,102162.65
2018-12-29T11:05:15.929Z,102156.60
2018-12-29T11:07:47.624Z,102151.38
2018-12-29T11:10:16.189Z,102155.70
2018-12-29T11:12:47.758Z,102154.39
2018-12-29T11:15:19.028Z,102159.09
2018-12-29T11:17:50.508Z,102156.54
2018-12-29T11:20:22.084Z,102149.63
2018-12-29T11:22:53.711Z,102149.16
2018-12-29T11:25:25.264Z,102140.98
2018-12-29T11:27:56.866Z,102137.16
2018-12-29T11:30:28.516Z,102145.77
2018-12-29T11:33:00.124Z,102140.23
2018-12-29T11:35:29.629Z,102152.31
2018-12-29T11:38:01.316Z,102149.68
2018-12-29T11:40:29.868Z,102158.78
2018-12-29T11:42:58.624Z,102154.00
2018-12-29T11:45:30.094Z,102144.98
2018-12-29T11:48:01.643Z,102143.67
2018-12-29T11:50:32.974Z,102136.34
2018-12-29T11:53:01.546Z,102140.69
2018-12-29T11:55:33.231Z,102139.85
2018-12-29T11:58:06.910Z,102130.78
2018-12-29T12:00:38.295Z,102128.17
2018-12-29T12:03:09.566Z,102121.23
2018-12-29T12:05:44.244Z,102114.36
2018-12-29T12:08:16.045Z,102106.58
2018-12-29T12:10:44.639Z,102103.14
2018-12-29T12:13:16.297Z,102100.52
2018-12-29T12:15:47.928Z,102101.37
2018-12-29T12:18:19.550Z,102095.67
2018-12-29T12:20:48.739Z,102094.82
2018-12-29T12:23:17.335Z,102092.64
2018-12-29T12:25:45.907Z,102097.87
2018-12-29T12:28:17.898Z,102099.12
2018-12-29T12:30:49.397Z,102085.25
2018-12-29T12:33:18.367Z,102084.81
2018-12-29T12:35:46.979Z,102080.11
2018-12-29T12:38:15.947Z,102071.02
2018-12-29T12:40:44.501Z,102058.58
2018-12-29T12:43:13.441Z,102056.80
2018-12-29T12:45:42.274Z,102063.19
2018-12-29T12:48:10.827Z,102064.81
2018-12-29T12:50:39.382Z,102079.89
2018-12-29T12:53:09.512Z,102073.42
2018-12-29T12:55:38.387Z,102074.80
2018-12-29T12:58:07.541Z,102079.07
2018-12-29T13:00:36.581Z,102069.20
2018-12-29T13:03:08.076Z,102069.20
2018-12-29T13:05:36.708Z,102063.64
2018-12-29T13:08:07.722Z,102052.80
2018-12-29T13:10:37.918Z,102057.10
2018-12-29T13:13:06.656Z,102068.70
2018-12-29T13:15:35.330Z,102066.97
2018-12-29T13:18:03.828Z,102065.72
2018-12-29T13:20:32.387Z,102071.73
2018-12-29T13:23:01.364Z,102062.30
2018-12-29T13:25:29.913Z,102054.95
2018-12-29T13:27:58.472Z,102063.63
2018-12-29T13:30:27.088Z,102065.76
2018-12-29T13:32:56.009Z,102063.14
2018-12-29T13:35:24.572Z,102064.02
2018-12-29T13:37:53.198Z,102062.32
2018-12-29T13:40:21.817Z,102068.82
2018-12-29T13:42:50.366Z,102067.57
2018-12-29T13:45:18.922Z,102062.44
2018-12-29T13:47:47.477Z,102067.16
2018-12-29T13:50:16.040Z,102064.59
2018-12-29T13:52:44.601Z,102066.72
2018-12-29T13:55:13.267Z,102063.66
2018-12-29T13:57:41.907Z,102067.53
2018-12-29T14:00:10.556Z,102062.27
2018-12-29T14:02:39.183Z,102061.42
2018-12-29T14:05:07.921Z,102060.11
2018-12-29T14:07:39.637Z,102058.83
2018-12-29T14:10:10.942Z,102059.76
2018-12-29T14:12:39.666Z,102056.71
2018-12-29T14:15:11.246Z,102061.01
2018-12-29T14:17:40.192Z,102055.33
2018-12-29T14:20:08.760Z,102060.57
2018-12-29T14:22:38.832Z,102059.28
2018-12-29T14:25:08.895Z,102054.20
2018-12-29T14:27:40.387Z,102050.74
2018-12-29T14:30:09.421Z,102048.97
2018-12-29T14:32:39.579Z,102049.81
2018-12-29T14:35:10.790Z,102048.05
2018-12-29T14:37:39.348Z,102044.62
2018-12-29T14:40:09.446Z,102044.61
2018-12-29T14:42:39.546Z,102042.05
2018-12-29T14:45:10.764Z,102037.66
2018-12-29T14:47:39.313Z,102036.80
2018-12-29T14:50:11.127Z,102030.70
2018-12-29T14:52:40.072Z,102035.03
2018-12-29T14:55:11.655Z,102025.22
2018-12-29T14:57:40.220Z,102024.33
2018-12-29T15:00:09.261Z,102020.08
2018-12-29T15:02:37.949Z,102017.08
2018-12-29T15:05:09.218Z,102018.83
2018-12-29T15:07:38.191Z,102008.38
2018-12-29T15:10:09.660Z,102000.66
2018-12-29T15:12:40.962Z,101999.80
2018-12-29T15:15:09.894Z,101999.77
2018-12-29T15:17:41.268Z,101996.80
2018-12-29T15:20:10.703Z,101994.16
2018-12-29T15:22:39.678Z,101983.03
2018-12-29T15:25:10.889Z,101989.41
2018-12-29T15:27:40.124Z,101987.22
2018-12-29T15:30:08.793Z,101992.78
2018-12-29T15:32:38.904Z,101984.16
2018-12-29T15:35:08.180Z,101981.58
2018-12-29T15:37:39.403Z,101968.17
2018-12-29T15:40:09.919Z,101970.72
2018-12-29T15:42:44.892Z,101968.59
2018-12-29T15:45:08.878Z,101957.41
2018-12-29T15:47:43.621Z,101953.16
2018-12-29T15:50:12.243Z,101950.47
2018-12-29T15:52:40.820Z,101943.08
2018-12-29T15:55:12.432Z,101938.32
2018-12-29T15:57:40.985Z,101937.07
2018-12-29T16:00:09.624Z,101932.02
2018-12-29T16:02:41.104Z,101929.02
2018-12-29T16:05:09.706Z,101917.80
2018-12-29T16:07:38.741Z,101917.84
2018-12-29T16:10:10.424Z,101910.46
2018-12-29T16:12:39.160Z,101906.06
2018-12-29T16:15:11.110Z,101902.23
2018-12-29T16:17:39.984Z,101894.96
2018-12-29T16:20:09.000Z,101885.96
2018-12-29T16:22:40.511Z,101885.99
2018-12-29T16:25:09.080Z,101880.91
2018-12-29T16:27:38.118Z,101887.77
2018-12-29T16:30:10.305Z,101887.34
2018-12-29T16:32:41.574Z,101883.00
2018-12-29T16:35:13.217Z,101873.07
2018-12-29T16:37:41.780Z,101876.94
2018-12-29T16:40:13.352Z,101872.21
2018-12-29T16:42:44.871Z,101860.22
2018-12-29T16:45:13.500Z,101863.24
2018-12-29T16:47:42.112Z,101861.94
2018-12-29T16:50:13.586Z,101864.46
2018-12-29T16:52:44.446Z,101862.84
2018-12-29T16:55:16.564Z,101861.54
2018-12-29T16:57:48.193Z,101863.28
2018-12-29T17:00:19.476Z,101859.42
2018-12-29T17:02:48.038Z,101862.44
2018-12-29T17:05:16.594Z,101860.31
2018-12-29T17:07:45.213Z,101856.83
2018-12-29T17:10:16.916Z,101849.49
2018-12-29T17:12:48.188Z,101843.85
2018-12-29T17:15:16.790Z,101843.85
2018-12-29T17:17:45.345Z,101836.13
2018-12-29T17:20:16.827Z,101838.69
2018-12-29T17:22:48.517Z,101831.34
2018-12-29T17:25:20.097Z,101829.63
2018-12-29T17:27:51.361Z,101822.80
2018-12-29T17:30:20.122Z,101826.21
2018-12-29T17:32:48.770Z,101824.06
2018-12-29T17:35:20.112Z,101821.91
2018-12-29T17:37:51.736Z,101819.80
2018-12-29T17:40:20.689Z,101821.06
2018-12-29T17:42:52.588Z,101818.03
2018-12-29T17:45:24.274Z,101812.36
2018-12-29T17:47:55.770Z,101818.42
2018-12-29T17:50:27.274Z,101817.03
2018-12-29T17:52:58.849Z,101811.54
2018-12-29T17:55:27.774Z,101814.14
2018-12-29T17:57:59.858Z,101808.53
2018-12-29T18:00:30.248Z,101802.56
2018-12-29T18:02:59.330Z,101794.34
2018-12-29T18:05:27.961Z,101790.09
2018-12-29T18:07:59.625Z,101787.88
2018-12-29T18:10:28.665Z,101787.03
2018-12-29T18:12:57.226Z,101768.53
2018-12-29T18:15:26.346Z,101759.06
2018-12-29T18:17:54.955Z,101760.83
2018-12-29T18:20:26.749Z,101760.02
2018-12-29T18:22:55.408Z,101757.41
2018-12-29T18:25:24.622Z,101747.45
2018-12-29T18:27:54.210Z,101742.78
2018-12-29T18:30:24.649Z,101741.43
2018-12-29T18:32:53.801Z,101742.31
2018-12-29T18:35:22.693Z,101746.67
2018-12-29T18:37:51.255Z,101733.33
2018-12-29T18:40:19.903Z,101729.47
2018-12-29T18:42:51.800Z,101725.13
2018-12-29T18:45:23.061Z,101720.40
2018-12-29T18:47:51.624Z,101720.84
2018-12-29T18:50:24.425Z,101717.03
2018-12-29T18:52:54.034Z,101711.02
2018-12-29T18:55:23.737Z,101704.16
2018-12-29T18:57:55.118Z,101693.71
2018-12-29T19:00:24.508Z,101683.91
2018-12-29T19:02:54.406Z,101683.01
2018-12-29T19:05:24.036Z,101671.39
2018-12-29T19:07:57.078Z,101661.95
2018-12-29T19:10:31.595Z,101662.77
2018-12-29T19:13:01.353Z,101655.50
2018-12-29T19:15:31.077Z,101647.37
2018-12-29T19:18:00.738Z,101648.23
2018-12-29T19:20:31.632Z,101634.92
2018-12-29T19:23:22.154Z,101632.31
2018-12-29T19:25:52.549Z,101632.30
2018-12-29T19:28:22.621Z,101637.41
2018-12-29T19:30:52.296Z,101648.30
2018-12-29T19:33:21.297Z,101642.19
2018-12-29T19:35:53.279Z,101648.59
2018-12-29T19:38:25.272Z,101650.28
2018-12-29T19:40:56.530Z,101631.03
2018-12-29T19:43:28.702Z,101614.32
2018-12-29T19:46:00.395Z,101614.32
2018-12-29T19:48:28.955Z,101614.83
2018-12-29T19:50:57.933Z,101610.09
2018-12-29T19:53:29.764Z,101596.37
2018-12-29T19:55:59.489Z,101574.47
2018-12-29T19:58:28.132Z,101574.47
2018-12-29T20:00:56.876Z,101572.32
2018-12-29T20:03:28.797Z,101570.23
2018-12-29T20:05:58.683Z,101562.89
2018-12-29T20:08:28.206Z,101546.17
2018-12-29T20:10:57.830Z,101550.44
2018-12-29T20:13:29.059Z,101551.71
2018-12-29T20:15:58.785Z,101544.83
2018-12-29T20:18:30.351Z,101536.25
2018-12-29T20:20:59.587Z,101533.19
2018-12-29T20:23:28.551Z,101532.81
2018-12-29T20:25:57.082Z,101529.82
2018-12-29T20:28:26.079Z,101514.79
2018-12-29T20:30:54.700Z,101515.64
2018-12-29T20:33:24.000Z,101511.31
2018-12-29T20:35:55.329Z,101504.45
2018-12-29T20:38:24.867Z,101510.02
2018-12-29T20:40:54.770Z,101501.89
2018-12-29T20:43:24.341Z,101489.08
2018-12-29T20:45:57.141Z,101474.86
2018-12-29T20:48:27.501Z,101474.91
2018-12-29T20:50:57.070Z,101474.91
2018-12-29T20:53:31.122Z,101460.64
2018-12-29T20:56:04.680Z,101462.84
2018-12-29T20:58:34.903Z,101451.20
2018-12-29T21:04:01.193Z,101436.27
2018-12-29T21:06:30.986Z,101437.97
2018-12-29T21:09:00.174Z,101413.82
2018-12-29T21:11:30.226Z,101413.82
2018-12-29T21:14:02.570Z,101413.45
2018-12-29T21:16:33.219Z,101401.84
2018-12-29T21:19:06.135Z,101400.52
2018-12-29T21:21:37.380Z,101385.39
2018-12-29T21:26:58.830Z,101389.30
2018-12-29T21:29:29.477Z,101379.08
2018-12-29T21:31:59.284Z,101379.06
2018-12-29T21:34:34.526Z,101376.39
2018-12-29T21:37:07.564Z,101384.93
2018-12-29T21:39:41.839Z,101365.12
2018-12-29T21:42:12.027Z,101367.70
2018-12-29T21:44:43.853Z,101365.08
2018-12-29T21:47:15.142Z,101361.16
2018-12-29T21:49:45.166Z,101355.95
2018-12-29T21:52:14.915Z,101347.78
2018-12-29T21:54:50.317Z,101343.47
2018-12-29T21:57:25.578Z,101340.84
2018-12-29T21:59:54.837Z,101343.94
2018-12-29T22:02:24.118Z,101327.64
2018-12-29T22:05:00.162Z,101327.64
2018-12-29T22:07:32.309Z,101330.61
2018-12-29T22:10:02.992Z,101321.17
2018-12-29T22:12:33.192Z,101326.66
2018-12-29T22:15:07.346Z,101316.56
2018-12-29T22:17:38.281Z,101316.56
2018-12-29T22:20:13.852Z,101318.30
2018-12-29T22:22:43.517Z,101309.59
2018-12-29T22:25:15.807Z,101308.17
2018-12-29T22:27:45.199Z,101286.52
2018-12-29T22:30:14.329Z,101286.52
2018-12-29T22:32:44.146Z,101289.77
2018-12-29T22:35:13.641Z,101289.77
2018-12-29T22:37:43.016Z,101292.29
2018-12-29T22:40:38.129Z,101286.73
2018-12-29T22:43:09.725Z,101290.50
2018-12-29T22:45:38.776Z,101281.08
2018-12-29T22:48:08.927Z,101281.08
2018-12-29T22:50:41.078Z,101279.43
2018-12-29T22:53:12.819Z,101264.09
2018-12-29T22:55:41.768Z,101264.09
2018-12-29T22:58:11.142Z,101263.11
2018-12-29T23:00:43.448Z,101267.81
2018-12-29T23:03:12.006Z,101267.87
2018-12-29T23:05:43.474Z,101253.63
2018-12-29T23:08:15.227Z,101247.27
2018-12-29T23:10:46.739Z,101247.27
2018-12-29T23:13:18.885Z,101242.08
2018-12-29T23:15:50.436Z,101237.34
2018-12-29T23:18:22.144Z,101237.34
2018-12-29T23:20:50.707Z,101242.38
2018-12-29T23:23:19.318Z,101239.34
2018-12-29T23:25:51.004Z,101239.34
2018-12-29T23:28:22.334Z,101221.72
2018-12-29T23:30:54.286Z,101233.33
2018-12-29T23:33:25.979Z,101230.70
2018-12-29T23:35:57.656Z,101222.59
2018-12-29T23:38:26.267Z,101211.00
2018-12-29T23:40:54.876Z,101211.00
2018-12-29T23:43:26.804Z,101216.25
2018-12-29T23:45:58.509Z,101211.89
2018-12-29T23:48:30.151Z,101215.05
2018-12-29T23:51:05.503Z,101215.05
2018-12-29T23:53:34.412Z,101216.70
2018-12-29T23:56:04.368Z,101203.37
2018-12-29T23:58:37.649Z,101201.67
